Time;durP1;ratioP1;P1;durP2;ratioP2;P2;SDS_P1;SDS_P2;PMS_P1;PMS_P2;Temp;Humidity;BMP_temperature;BMP_pressure;BME280_temperature;BME280_humidity;BME280_pressure;Samples;Min_cycle;Max_cycle;Signal;HPM_P1;HPM_P2
2023/10/14 00:02:11;;;;;;;26.70;18.50;;;;;;;18.84;58.87;102045.16;107178;1255;25366;-73
2023/10/14 00:04:38;;;;;;;23.00;17.40;;;;;;;18.83;59.00;102042.73;107179;1251;25586;-73
2023/10/14 00:07:08;;;;;;;22.20;16.80;;;;;;;18.83;58.99;102046.61;106964;1257;25338;-73
2023/10/14 00:09:43;;;;;;;26.30;17.10;;;;;;;18.81;59.21;102046.14;106980;1260;24309;-73
2023/10/14 00:12:14;;;;;;;24.00;17.20;;;;;;;18.81;59.23;102048.63;107116;1251;22665;-73
2023/10/14 00:14:42;;;;;;;23.50;16.30;;;;;;;18.80;59.32;102049.68;106986;1256;22796;-73
2023/10/14 00:17:18;;;;;;;26.60;16.70;;;;;;;18.81;59.31;102047.19;107269;1254;22527;-74
2023/10/14 00:19:55;;;;;;;21.70;14.90;;;;;;;18.81;59.08;102051.08;107173;1257;25494;-73
2023/10/14 00:22:23;;;;;;;19.00;14.80;;;;;;;18.80;59.05;102053.58;107076;1254;25423;-73
2023/10/14 00:24:52;;;;;;;24.30;14.80;;;;;;;18.77;58.87;102051.20;107011;1257;25328;-73
2023/10/14 00:27:19;;;;;;;18.40;13.20;;;;;;;18.75;58.89;102050.05;106449;1272;515404;-73
2023/10/14 00:29:47;;;;;;;18.40;13.00;;;;;;;18.73;58.86;102049.77;107137;1257;25378;-73
2023/10/14 00:32:14;;;;;;;20.00;13.40;;;;;;;18.71;58.82;102048.43;107278;1252;22536;-74
2023/10/14 00:34:42;;;;;;;15.40;12.00;;;;;;;18.68;58.61;102046.95;107235;1263;25381;-73
2023/10/14 00:37:09;;;;;;;18.80;13.70;;;;;;;18.66;58.62;102046.33;107201;1257;25399;-73
2023/10/14 00:39:36;;;;;;;15.90;12.70;;;;;;;18.63;58.60;102044.50;107124;1258;25519;-74
2023/10/14 00:42:04;;;;;;;17.80;12.50;;;;;;;18.60;58.64;102048.27;107147;1264;25287;-73
2023/10/14 00:44:33;;;;;;;18.40;13.10;;;;;;;18.58;58.63;102046.60;106937;1274;22779;-73
2023/10/14 00:47:06;;;;;;;19.70;12.80;;;;;;;18.54;58.71;102043.58;107111;1254;22531;-74
2023/10/14 00:49:38;;;;;;;16.80;12.50;;;;;;;18.50;58.80;102046.16;107179;1256;25347;-73
2023/10/14 00:52:15;;;;;;;22.50;13.20;;;;;;;18.47;58.93;102047.00;107077;1254;25243;-73
2023/10/14 00:59:47;;;;;;;19.60;12.90;;;;;;;18.40;59.25;102040.17;107043;1255;25388;-74
2023/10/14 01:02:14;;;;;;;18.10;13.10;;;;;;;18.39;59.24;102040.56;107061;1260;22989;-73
2023/10/14 01:04:48;;;;;;;20.20;12.30;;;;;;;18.38;59.19;102039.53;106970;1257;22527;-73
2023/10/14 01:07:15;;;;;;;17.40;11.80;;;;;;;18.38;59.31;102037.45;107111;1267;25490;-73
2023/10/14 01:12:16;;;;;;;16.00;12.20;;;;;;;18.38;59.38;102026.70;106877;1273;23586;-73
2023/10/14 01:14:46;;;;;;;18.10;11.70;;;;;;;18.40;59.28;102025.58;106893;1275;25440;-73
2023/10/14 01:17:21;;;;;;;14.40;11.20;;;;;;;18.41;59.36;102028.17;106988;1270;25459;-73
2023/10/14 01:19:48;;;;;;;14.90;11.60;;;;;;;18.43;59.39;102025.50;106933;1257;24274;-74
2023/10/14 01:22:16;;;;;;;15.80;10.80;;;;;;;18.44;59.42;102024.25;106566;1267;25341;-73
2023/10/14 01:24:43;;;;;;;16.40;11.00;;;;;;;18.45;59.45;102024.39;106959;1257;25445;-73
2023/10/14 01:27:11;;;;;;;13.50;11.20;;;;;;;18.45;59.59;102029.85;106936;1257;25574;-74
2023/10/14 01:29:41;;;;;;;18.00;11.50;;;;;;;18.43;59.93;102022.50;107117;1265;25427;-73
2023/10/14 01:32:23;;;;;;;12.80;10.80;;;;;;;18.41;60.09;102025.55;107241;1264;25404;-73
2023/10/14 01:34:57;;;;;;;14.00;10.30;;;;;;;18.39;60.35;102024.38;107427;1269;25356;-73
2023/10/14 01:37:26;;;;;;;14.20;10.80;;;;;;;18.38;60.54;102025.14;107334;1259;22542;-73
2023/10/14 01:39:57;;;;;;;17.90;11.10;;;;;;;18.36;60.71;102019.93;107091;1263;22516;-73
2023/10/14 01:42:24;;;;;;;14.70;10.50;;;;;;;18.35;60.96;102018.38;107167;1251;23544;-74
2023/10/14 01:44:53;;;;;;;13.10;10.20;;;;;;;18.36;60.95;102018.53;107118;1251;25376;-73
2023/10/14 01:47:25;;;;;;;12.90;9.90;;;;;;;18.35;60.98;102019.24;107077;1275;25356;-74
2023/10/14 01:49:53;;;;;;;13.80;10.30;;;;;;;18.36;61.19;102014.12;107172;1257;24373;-73
2023/10/14 01:52:20;;;;;;;14.60;10.50;;;;;;;18.37;61.20;102016.73;107172;1256;22533;-73
2023/10/14 01:54:47;;;;;;;14.60;11.10;;;;;;;18.37;61.30;102015.48;106883;1257;22538;-73
2023/10/14 01:57:16;;;;;;;12.50;10.50;;;;;;;18.38;61.22;102013.52;107139;1254;25446;-73
2023/10/14 01:59:49;;;;;;;15.30;10.20;;;;;;;18.38;61.37;102013.70;107210;1252;25385;-74
2023/10/14 02:02:19;;;;;;;19.00;10.40;;;;;;;18.39;61.45;102011.20;107235;1251;25366;-74
2023/10/14 02:04:47;;;;;;;13.60;10.80;;;;;;;18.40;61.45;102006.95;107226;1257;22636;-74
2023/10/14 02:07:21;;;;;;;11.90;10.10;;;;;;;18.40;61.46;102008.70;106983;1266;25307;-73
2023/10/14 02:09:48;;;;;;;13.90;10.80;;;;;;;18.41;61.51;102006.56;107087;1254;22621;-74
2023/10/14 02:12:15;;;;;;;12.50;9.90;;;;;;;18.42;61.54;102007.96;107232;1257;25362;-74
2023/10/14 02:14:56;;;;;;;15.50;9.90;;;;;;;18.42;61.49;102007.23;107222;1251;25334;-73
2023/10/14 02:17:24;;;;;;;19.40;10.90;;;;;;;18.43;61.58;102009.67;107212;1252;25315;-73
2023/10/14 02:19:54;;;;;;;14.90;10.80;;;;;;;18.43;61.66;102009.67;107239;1254;24239;-74
2023/10/14 02:22:23;;;;;;;14.00;11.00;;;;;;;18.43;61.67;102008.79;106918;1270;25291;-74
2023/10/14 02:24:55;;;;;;;13.60;10.10;;;;;;;18.44;61.64;102008.44;107269;1257;25497;-74
2023/10/14 02:27:23;;;;;;;;;;;;;;;18.45;61.72;102010.69;106983;1267;22599;-74
2023/10/14 02:29:51;;;;;;;18.30;11.30;;;;;;;18.46;61.80;102015.05;106968;1260;24219;-75
2023/10/14 02:32:20;;;;;;;13.90;11.00;;;;;;;18.46;61.82;102013.82;106901;1259;22601;-74
2023/10/14 02:34:47;;;;;;;15.20;11.70;;;;;;;18.47;61.68;102012.03;106857;1257;22575;-74
2023/10/14 02:37:14;;;;;;;14.40;11.30;;;;;;;18.47;61.75;102005.70;106768;1257;26633;-74
2023/10/14 02:39:43;;;;;;;14.00;11.20;;;;;;;18.47;61.82;102002.87;106579;1257;24474;-74
2023/10/14 02:42:14;;;;;;;14.30;11.40;;;;;;;18.48;61.89;102002.69;106914;1257;25481;-74
2023/10/14 02:44:52;;;;;;;21.20;12.50;;;;;;;18.49;61.85;102009.31;106895;1260;25369;-74
2023/10/14 02:47:21;;;;;;;20.20;12.30;;;;;;;18.50;61.82;102009.46;106561;1267;22676;-75
2023/10/14 02:49:54;;;;;;;18.20;12.80;;;;;;;18.51;61.83;102005.54;106754;1266;22777;-75
2023/10/14 02:52:29;;;;;;;15.50;12.10;;;;;;;18.52;61.83;102006.05;106825;1259;25532;-74
2023/10/14 02:57:45;;;;;;;15.30;11.70;;;;;;;18.53;61.78;101999.15;106643;1259;1003105;-74
2023/10/14 03:00:19;;;;;;;15.80;11.60;;;;;;;18.54;61.75;101998.60;106890;1272;25449;-75
2023/10/14 03:03:02;;;;;;;15.50;13.20;;;;;;;18.55;61.42;101999.08;106945;1264;25804;-75
2023/10/14 03:08:16;;;;;;;16.20;12.90;;;;;;;18.56;60.91;101999.75;107014;1259;25331;-74
2023/10/14 03:10:45;;;;;;;14.10;12.30;;;;;;;18.56;60.72;101998.00;106893;1260;22584;-74
2023/10/14 03:13:13;;;;;;;18.70;13.50;;;;;;;18.56;60.52;101993.06;107034;1254;22527;-74
2023/10/14 03:15:44;;;;;;;16.00;11.80;;;;;;;18.56;60.36;101989.57;106969;1260;25372;-74
2023/10/14 03:18:18;;;;;;;17.30;11.80;;;;;;;18.56;60.14;101988.66;107145;1254;25335;-74
2023/10/14 03:25:47;;;;;;;16.00;11.80;;;;;;;18.55;59.60;101984.49;107161;1263;24251;-74
2023/10/14 03:28:19;;;;;;;16.30;12.60;;;;;;;18.53;59.49;101980.72;107259;1251;22527;-74
2023/10/14 03:30:58;;;;;;;18.90;12.90;;;;;;;18.52;59.32;101981.80;107056;1256;25372;-74
2023/10/14 03:33:27;;;;;;;19.80;12.90;;;;;;;18.50;59.17;101983.27;107086;1257;25363;-75
2023/10/14 03:36:03;;;;;;;17.60;12.50;;;;;;;18.48;59.08;101983.15;107203;1256;24188;-74
2023/10/14 03:41:21;;;;;;;20.00;12.20;;;;;;;18.46;59.13;101982.19;107177;1254;22543;-73
2023/10/14 03:46:23;;;;;;;16.60;11.50;;;;;;;18.44;58.90;101979.27;107176;1254;23083;-74
2023/10/14 03:48:56;;;;;;;15.80;11.30;;;;;;;18.38;58.79;101978.20;107167;1257;24232;-73
2023/10/14 03:51:30;;;;;;;19.90;11.80;;;;;;;18.22;58.92;101982.45;106892;1259;25366;-75
2023/10/14 03:53:58;;;;;;;13.20;11.70;;;;;;;18.18;58.95;101986.46;107209;1251;24335;-74
2023/10/14 03:56:25;;;;;;;14.40;12.10;;;;;;;18.14;58.83;101987.98;107255;1254;25159;-74
2023/10/14 03:59:01;;;;;;;17.20;11.20;;;;;;;18.12;58.78;101985.27;107167;1260;25366;-74
2023/10/14 04:01:34;;;;;;;13.40;10.90;;;;;;;18.09;58.81;101985.71;106888;1267;25338;-74
2023/10/14 04:04:17;;;;;;;14.70;11.60;;;;;;;18.07;59.21;101986.49;107275;1251;25365;-74
2023/10/14 04:10:08;;;;;;;14.00;11.30;;;;;;;18.03;59.64;101990.66;107199;1251;22524;-73
2023/10/14 04:15:05;;;;;;;14.20;12.20;;;;;;;17.99;60.37;101987.65;106856;1257;25382;-74
2023/10/14 04:17:32;;;;;;;17.30;12.30;;;;;;;17.97;60.68;101993.50;106856;1263;24194;-74
2023/10/14 04:30:21;;;;;;;18.00;13.50;;;;;;;17.94;61.75;101994.31;106630;1260;24406;-75
2023/10/14 04:35:23;;;;;;;17.20;13.60;;;;;;;17.93;62.15;101998.90;106302;1262;25424;-74
2023/10/14 04:37:53;;;;;;;16.20;12.60;;;;;;;17.93;62.35;102001.16;106452;1262;25478;-75
2023/10/14 04:48:37;;;;;;;18.50;12.30;;;;;;;18.04;62.70;102007.31;106789;1259;24197;-75
2023/10/14 04:51:50;;;;;;;20.40;12.50;;;;;;;18.18;62.44;102004.20;106388;1275;22662;-75
2023/10/14 04:54:00;;;;;;;15.70;11.70;;;;;;;18.22;62.54;102009.16;106568;1275;25308;-75
2023/10/14 04:56:30;;;;;;;15.80;11.70;;;;;;;18.25;62.74;102012.05;106625;1270;22557;-75
2023/10/14 04:58:57;;;;;;;16.90;11.90;;;;;;;18.27;62.95;102012.16;106811;1259;25344;-76
2023/10/14 05:01:24;;;;;;;17.70;12.80;;;;;;;18.28;63.08;102009.11;106575;1259;22666;-76
2023/10/14 05:03:56;;;;;;;14.90;11.50;;;;;;;18.34;63.34;102008.23;106845;1257;22649;-76
2023/10/14 05:06:29;;;;;;;17.40;11.60;;;;;;;18.37;63.39;102007.59;106967;1257;22617;-76
2023/10/14 05:08:56;;;;;;;18.40;12.50;;;;;;;18.40;63.50;102011.33;107067;1253;24391;-76
2023/10/14 05:11:25;;;;;;;17.60;12.60;;;;;;;18.43;63.66;102007.05;107128;1269;25378;-77
2023/10/14 05:14:08;;;;;;;15.90;11.90;;;;;;;18.46;63.89;102005.01;107154;1253;22621;-76
2023/10/14 05:17:04;;;;;;;13.50;10.80;;;;;;;18.51;63.96;102004.33;107172;1251;22636;-76
2023/10/14 05:19:54;;;;;;;13.90;10.90;;;;;;;18.57;64.05;102004.83;106988;1253;25337;-76
2023/10/14 05:22:24;;;;;;;18.50;11.00;;;;;;;18.62;64.04;102008.31;107188;1256;23913;-75
2023/10/14 05:24:54;;;;;;;15.70;12.10;;;;;;;18.66;64.13;102012.73;107195;1253;22644;-76
2023/10/14 05:27:21;;;;;;;19.60;13.20;;;;;;;18.71;64.16;102012.60;107097;1270;25303;-75
2023/10/14 05:29:52;;;;;;;20.30;13.10;;;;;;;18.75;64.10;102014.00;107224;1255;22630;-75
2023/10/14 05:32:24;;;;;;;15.70;12.60;;;;;;;18.80;64.07;102016.66;107221;1253;23871;-76
2023/10/14 05:34:52;;;;;;;16.70;12.30;;;;;;;18.85;63.96;102015.58;106937;1274;25366;-76
2023/10/14 05:37:21;;;;;;;12.30;11.00;;;;;;;18.90;64.01;102017.16;107069;1259;25511;-75
2023/10/14 05:39:50;;;;;;;16.60;12.60;;;;;;;18.95;64.03;102016.27;106856;1259;25361;-76
2023/10/14 05:42:20;;;;;;;16.00;12.90;;;;;;;18.99;63.99;102022.60;107184;1253;25518;-75
2023/10/14 05:44:48;;;;;;;16.30;12.10;;;;;;;19.03;64.11;102023.71;107107;1257;25378;-75
2023/10/14 05:47:19;;;;;;;16.80;12.30;;;;;;;19.06;63.98;102025.16;107068;1256;24349;-76
2023/10/14 05:49:46;;;;;;;16.70;12.90;;;;;;;19.09;64.05;102020.14;107000;1257;22652;-75
2023/10/14 05:52:14;;;;;;;16.20;11.70;;;;;;;19.12;64.04;102019.14;106623;1267;25363;-74
2023/10/14 05:54:47;;;;;;;16.20;13.00;;;;;;;19.16;63.87;102022.02;106359;1262;24021;-74
2023/10/14 05:57:16;;;;;;;25.80;12.70;;;;;;;19.19;63.78;102020.48;106570;1262;22557;-74
2023/10/14 05:59:43;;;;;;;15.50;11.80;;;;;;;19.24;63.88;102020.46;106617;1256;22719;-74
2023/10/14 06:02:13;;;;;;;16.70;11.90;;;;;;;19.32;63.91;102017.33;106451;1260;25414;-74
2023/10/14 06:04:40;;;;;;;12.40;10.90;;;;;;;19.45;63.92;102020.73;106690;1256;25418;-74
2023/10/14 06:07:12;;;;;;;14.40;11.40;;;;;;;19.58;63.82;102017.95;106775;1259;25596;-74
2023/10/14 06:09:40;;;;;;;20.50;11.50;;;;;;;19.70;63.31;102016.23;106868;1257;22516;-74
2023/10/14 06:12:12;;;;;;;15.30;11.90;;;;;;;19.80;63.22;102012.52;106717;1256;24276;-74
2023/10/14 06:14:41;;;;;;;15.00;11.50;;;;;;;19.90;63.17;102015.27;106535;1270;22534;-73
2023/10/14 06:17:08;;;;;;;18.80;11.30;;;;;;;19.99;62.99;102015.42;106694;1259;25304;-73
2023/10/14 06:19:38;;;;;;;12.70;10.60;;;;;;;20.08;62.92;102016.60;106569;1261;25418;-73
2023/10/14 06:22:08;;;;;;;14.00;11.20;;;;;;;20.18;62.82;102016.38;106706;1259;22566;-73
2023/10/14 06:24:35;;;;;;;13.10;11.00;;;;;;;20.29;62.76;102018.39;107025;1259;24320;-73
2023/10/14 06:27:08;;;;;;;15.90;11.00;;;;;;;20.39;62.57;102013.23;107044;1254;25516;-73
2023/10/14 06:29:36;;;;;;;13.90;11.30;;;;;;;20.50;62.36;102014.17;107257;1257;25496;-74
2023/10/14 06:32:03;;;;;;;17.00;10.90;;;;;;;20.59;62.19;102013.24;107320;1251;25382;-72
2023/10/14 06:34:49;;;;;;;11.90;10.00;;;;;;;20.68;62.04;102011.05;107006;1259;24419;-72
2023/10/14 06:37:16;;;;;;;13.00;9.00;;;;;;;20.78;62.03;102009.73;107168;1254;22536;-73
2023/10/14 06:39:43;;;;;;;12.30;7.50;;;;;;;20.88;62.10;102013.85;107182;1267;22985;-71
2023/10/14 06:42:11;;;;;;;11.40;6.00;;;;;;;20.98;62.05;102016.05;106715;1274;22653;-71
2023/10/14 06:44:45;;;;;;;7.30;5.70;;;;;;;21.10;62.13;102012.23;107063;1274;25364;-71
2023/10/14 06:47:12;;;;;;;9.40;6.10;;;;;;;21.21;62.02;102010.84;107191;1267;23032;-71
2023/10/14 06:49:41;;;;;;;12.10;5.80;;;;;;;21.29;61.89;102008.50;107171;1266;24387;-71
2023/10/14 06:52:11;;;;;;;10.20;5.90;;;;;;;21.37;61.67;102007.58;107332;1266;24237;-71
2023/10/14 06:54:41;;;;;;;10.30;5.80;;;;;;;21.46;61.73;102011.92;107226;1266;22544;-71
2023/10/14 06:57:08;;;;;;;7.30;4.60;;;;;;;21.55;61.63;102007.63;107256;1266;25343;-71
2023/10/14 06:59:36;;;;;;;7.50;4.10;;;;;;;21.63;61.51;102010.94;107158;1267;24211;-68
2023/10/14 07:02:03;;;;;;;7.20;4.00;;;;;;;21.69;61.47;102006.55;106832;1267;25375;-71
2023/10/14 07:04:31;;;;;;;5.30;3.80;;;;;;;21.77;61.30;102007.80;107126;1266;22527;-70
2023/10/14 07:06:58;;;;;;;10.40;3.70;;;;;;;21.83;61.35;102004.52;107136;1266;24246;-70
2023/10/14 07:09:27;;;;;;;5.30;3.40;;;;;;;21.89;61.21;102004.77;106901;1267;25517;-70
2023/10/14 07:11:57;;;;;;;6.00;3.20;;;;;;;21.95;61.17;102001.45;107025;1269;24207;-70
2023/10/14 07:14:24;;;;;;;4.00;3.00;;;;;;;22.00;61.05;102000.84;107130;1266;22599;-70
2023/10/14 07:16:51;;;;;;;7.50;3.00;;;;;;;22.06;60.95;102000.52;107214;1266;25402;-70
2023/10/14 07:19:19;;;;;;;3.40;2.40;;;;;;;22.12;60.86;101999.52;107134;1266;25529;-70
2023/10/14 07:21:46;;;;;;;5.00;3.00;;;;;;;22.17;60.82;101995.77;106975;1267;25348;-68
2023/10/14 07:24:14;;;;;;;4.00;3.40;;;;;;;22.21;60.78;101998.88;107163;1266;24281;-70
2023/10/14 07:26:43;;;;;;;3.60;2.50;;;;;;;22.26;60.69;102001.13;107133;1260;22546;-70
2023/10/14 07:29:10;;;;;;;4.90;3.20;;;;;;;22.30;60.49;101997.90;107076;1263;25291;-70
2023/10/14 07:31:37;;;;;;;7.60;3.30;;;;;;;22.34;60.31;101994.86;106673;1266;22746;-70
2023/10/14 07:34:08;;;;;;;3.10;2.70;;;;;;;22.39;60.26;101994.06;106905;1269;25423;-71
2023/10/14 07:36:36;;;;;;;6.10;3.00;;;;;;;22.43;60.28;101995.45;107167;1274;25448;-74
2023/10/14 07:39:27;;;;;;;5.20;3.00;;;;;;;22.48;60.19;101994.14;107155;1267;25419;-74
2023/10/14 07:41:52;;;;;;;6.80;3.00;;;;;;;22.53;60.09;101993.33;107110;1274;24217;-73
2023/10/14 07:44:20;;;;;;;5.30;3.30;;;;;;;22.59;59.94;101997.32;107157;1272;22576;-73
2023/10/14 07:46:47;;;;;;;3.90;2.50;;;;;;;22.65;59.83;101998.21;107308;1266;22499;-74
2023/10/14 07:49:14;;;;;;;3.90;3.00;;;;;;;22.68;59.75;101997.55;106667;1275;22654;-74
2023/10/14 07:51:42;;;;;;;3.90;2.80;;;;;;;22.72;59.81;101999.29;107154;1273;24376;-73
2023/10/14 07:54:12;;;;;;;5.60;2.90;;;;;;;22.80;59.62;101996.52;107124;1263;22530;-73
2023/10/14 07:56:43;;;;;;;4.30;2.70;;;;;;;22.93;59.36;101994.21;106870;1272;24254;-74
2023/10/14 07:59:10;;;;;;;6.60;2.60;;;;;;;23.02;59.16;101996.06;107326;1251;24996;-72
2023/10/14 08:01:38;;;;;;;8.40;2.80;;;;;;;23.01;59.23;101998.06;107438;1256;25520;-73
2023/10/14 08:04:08;;;;;;;3.20;2.60;;;;;;;22.98;59.22;101996.66;107084;1257;25249;-73
2023/10/14 08:06:40;;;;;;;4.10;2.30;;;;;;;23.02;59.31;101991.83;107285;1253;22543;-72
2023/10/14 08:09:23;;;;;;;5.40;3.00;;;;;;;23.07;59.29;101992.93;107161;1253;24210;-74
2023/10/14 08:11:51;;;;;;;5.60;2.30;;;;;;;23.14;59.20;101988.15;107179;1250;25401;-72
2023/10/14 08:14:18;;;;;;;4.10;2.10;;;;;;;23.20;59.14;101991.73;106803;1263;22752;-73
2023/10/14 08:16:48;;;;;;;5.30;2.20;;;;;;;23.25;59.12;101983.79;107338;1267;24301;-73
2023/10/14 08:19:16;;;;;;;4.10;2.50;;;;;;;23.31;59.05;101983.84;107454;1254;25424;-74
2023/10/14 08:21:43;;;;;;;3.80;2.20;;;;;;;23.46;58.83;101979.65;106944;1256;24298;-72
2023/10/14 08:24:14;;;;;;;5.50;2.40;;;;;;;23.59;58.46;101977.47;107623;1253;24368;-73
2023/10/14 08:26:41;;;;;;;3.60;2.50;;;;;;;23.67;58.12;101974.55;107196;1266;24275;-73
2023/10/14 08:29:12;;;;;;;4.30;2.20;;;;;;;23.73;57.85;101969.27;107395;1256;23861;-72
2023/10/14 08:31:39;;;;;;;7.80;2.00;;;;;;;23.78;57.69;101968.75;107350;1251;24247;-73
2023/10/14 08:34:07;;;;;;;4.30;2.60;;;;;;;23.68;57.91;101967.40;107154;1260;23143;-73
2023/10/14 08:36:34;;;;;;;8.60;2.50;;;;;;;23.69;57.91;101964.55;107393;1255;25424;-73
2023/10/14 08:39:00;;;;;;;6.00;2.50;;;;;;;23.73;57.75;101964.48;107296;1250;25478;-71
2023/10/14 08:41:33;;;;;;;6.00;2.70;;;;;;;23.77;57.56;101960.48;106818;1256;1002609;-72
2023/10/14 08:44:08;;;;;;;5.10;2.70;;;;;;;23.82;57.58;101960.55;107415;1257;22614;-72
2023/10/14 08:46:39;;;;;;;7.50;2.50;;;;;;;23.86;57.20;101960.67;107648;1250;25394;-73
2023/10/14 08:49:07;;;;;;;5.90;2.30;;;;;;;23.88;57.05;101962.32;107773;1250;22530;-72
2023/10/14 08:51:35;;;;;;;5.50;2.40;;;;;;;23.90;56.87;101959.56;107419;1250;24204;-73
2023/10/14 08:54:24;;;;;;;4.00;2.00;;;;;;;23.94;56.75;101959.65;107628;1256;25362;-72
2023/10/14 08:56:51;;;;;;;;;;;;;;;23.99;56.41;101954.42;107499;1253;22501;-72
2023/10/14 08:59:18;;;;;;;3.50;2.40;;;;;;;24.03;56.21;101957.21;107275;1257;25359;-73
2023/10/14 09:01:51;;;;;;;6.90;2.20;;;;;;;24.06;56.11;101954.89;107247;1252;22527;-73
2023/10/14 09:04:28;;;;;;;3.30;2.30;;;;;;;24.11;55.70;101953.37;107914;1254;28001;-71
2023/10/14 09:07:02;;;;;;;4.00;2.20;;;;;;;24.16;55.43;101949.73;107712;1259;24346;-72
2023/10/14 09:09:31;;;;;;;3.00;1.90;;;;;;;24.20;55.15;101949.11;107331;1256;23124;-72
2023/10/14 09:12:10;;;;;;;5.90;2.60;;;;;;;24.24;54.88;101947.95;107346;1251;24208;-71
2023/10/14 09:14:38;;;;;;;4.80;2.60;;;;;;;24.28;54.67;101942.43;107275;1253;22530;-74
2023/10/14 09:17:08;;;;;;;3.50;2.30;;;;;;;24.33;54.54;101943.90;107304;1269;25453;-72
2023/10/14 09:19:48;;;;;;;4.20;2.30;;;;;;;24.37;54.37;101940.64;107453;1254;26505;-71
2023/10/14 09:22:42;;;;;;;3.10;2.30;;;;;;;24.42;54.19;101936.13;106992;1259;23909;-74
2023/10/14 09:25:08;;;;;;;3.20;2.20;;;;;;;24.47;54.11;101925.89;106732;1260;25627;-75
2023/10/14 09:27:37;;;;;;;7.00;2.80;;;;;;;24.50;53.96;101923.34;106575;1265;25358;-74
2023/10/14 09:30:05;;;;;;;3.70;2.40;;;;;;;24.54;53.96;101921.01;106779;1262;25416;-72
2023/10/14 09:32:32;;;;;;;3.80;2.40;;;;;;;24.57;53.73;101917.56;106844;1262;25603;-73
2023/10/14 09:34:59;;;;;;;3.70;2.40;;;;;;;24.61;53.61;101915.73;106590;1262;23338;-73
2023/10/14 09:37:26;;;;;;;2.90;2.30;;;;;;;24.65;53.54;101913.57;106378;1259;23306;-73
2023/10/14 09:39:57;;;;;;;2.50;2.30;;;;;;;24.67;53.65;101901.50;106514;1266;25332;-73
2023/10/14 09:42:30;;;;;;;3.60;2.20;;;;;;;24.70;53.48;101903.48;106452;1262;25427;-73
2023/10/14 09:44:57;;;;;;;3.90;2.60;;;;;;;24.72;53.36;101903.37;106454;1263;25373;-74
2023/10/14 09:47:25;;;;;;;3.80;2.40;;;;;;;24.75;53.28;101902.48;106721;1262;25392;-74
2023/10/14 09:49:52;;;;;;;7.80;3.00;;;;;;;24.76;53.10;101896.00;106549;1259;25418;-73
2023/10/14 09:52:19;;;;;;;2.80;2.40;;;;;;;24.77;53.17;101889.74;106797;1259;25230;-73
2023/10/14 09:54:49;;;;;;;3.80;2.90;;;;;;;24.79;53.31;101887.49;106633;1275;23277;-72
2023/10/14 09:57:16;;;;;;;4.00;2.10;;;;;;;24.80;53.29;101884.20;106775;1259;25357;-72
2023/10/14 09:59:44;;;;;;;6.10;2.40;;;;;;;24.82;53.52;101875.91;106705;1262;22545;-73
2023/10/14 10:02:11;;;;;;;5.50;2.50;;;;;;;24.85;53.60;101874.52;106932;1260;23891;-73
2023/10/14 10:04:42;;;;;;;3.60;2.50;;;;;;;24.86;53.78;101871.55;107322;1256;22532;-73
2023/10/14 10:07:41;;;;;;;5.60;2.50;;;;;;;24.88;53.89;101868.23;107392;1257;25415;-74
2023/10/14 10:10:13;;;;;;;6.50;3.00;;;;;;;24.91;54.04;101866.98;107247;1256;25440;-73
2023/10/14 10:12:43;;;;;;;3.90;2.60;;;;;;;24.93;54.19;101866.34;107259;1272;22544;-73
2023/10/14 10:15:10;;;;;;;4.50;2.90;;;;;;;24.94;54.32;101861.81;107611;1263;25362;-74
2023/10/14 10:17:38;;;;;;;6.10;2.70;;;;;;;24.95;54.54;101856.63;107362;1255;23045;-73
2023/10/14 10:20:09;;;;;;;5.20;2.80;;;;;;;24.95;54.67;101857.71;107408;1256;24268;-71
2023/10/14 10:22:50;;;;;;;4.30;2.80;;;;;;;24.98;54.73;101862.61;107555;1266;22519;-72
2023/10/14 10:25:18;;;;;;;9.20;3.10;;;;;;;25.01;54.67;101859.22;107727;1257;22636;-73
2023/10/14 10:27:47;;;;;;;3.80;2.60;;;;;;;25.04;54.73;101859.25;107392;1251;22570;-71
2023/10/14 10:30:15;;;;;;;3.10;2.10;;;;;;;25.06;54.81;101859.30;107189;1257;23245;-73
2023/10/14 10:32:48;;;;;;;5.80;2.60;;;;;;;25.08;54.62;101859.35;107224;1256;22564;-72
2023/10/14 10:35:17;;;;;;;2.80;2.30;;;;;;;25.09;54.45;101855.02;107169;1266;25379;-73
2023/10/14 10:37:55;;;;;;;3.80;2.40;;;;;;;25.10;54.50;101854.56;106872;1261;24187;-73
2023/10/14 10:40:25;;;;;;;5.00;2.60;;;;;;;25.12;54.60;101850.74;107066;1259;24445;-74
2023/10/14 10:42:56;;;;;;;;;;;;;;;25.13;54.60;101849.39;107121;1256;22508;-75
2023/10/14 10:45:26;;;;;;;5.00;2.10;;;;;;;25.16;54.70;101848.31;107083;1257;22537;-74
2023/10/14 10:47:56;;;;;;;4.00;2.20;;;;;;;25.18;54.75;101853.20;107220;1266;22572;-74
2023/10/14 10:50:28;;;;;;;3.70;2.30;;;;;;;25.20;54.78;101848.80;107033;1259;22771;-73
2023/10/14 10:53:10;;;;;;;5.20;2.40;;;;;;;25.22;54.72;101844.90;107399;1257;26515;-71
2023/10/14 10:55:40;;;;;;;4.50;2.40;;;;;;;25.26;54.74;101845.38;107085;1260;24709;-72
2023/10/14 10:58:08;;;;;;;8.10;2.20;;;;;;;25.30;54.58;101845.11;107369;1256;22663;-73
2023/10/14 11:00:38;;;;;;;7.00;2.30;;;;;;;25.32;54.69;101841.73;107294;1260;22544;-74
2023/10/14 11:03:05;;;;;;;5.10;2.40;;;;;;;25.34;54.62;101838.61;107576;1269;25411;-73
2023/10/14 11:05:36;;;;;;;5.80;2.30;;;;;;;25.37;54.70;101837.52;107215;1257;23208;-73
2023/10/14 11:08:06;;;;;;;3.40;2.40;;;;;;;25.39;54.57;101833.63;107923;1253;25455;-74
2023/10/14 11:10:34;;;;;;;7.30;2.00;;;;;;;25.40;54.30;101831.95;107210;1251;24234;-72
2023/10/14 11:13:01;;;;;;;2.80;1.80;;;;;;;25.39;54.25;101823.31;107359;1253;24279;-73
2023/10/14 11:15:34;;;;;;;2.90;2.00;;;;;;;25.37;54.34;101822.55;107415;1261;22520;-72
2023/10/14 11:18:01;;;;;;;3.90;2.10;;;;;;;25.35;54.34;101821.46;107795;1255;22519;-70
2023/10/14 11:20:35;;;;;;;5.10;2.30;;;;;;;25.33;54.40;101818.61;107271;1254;23882;-72
2023/10/14 11:23:10;;;;;;;4.80;2.40;;;;;;;25.32;54.25;101819.05;107029;1256;25369;-74
2023/10/14 11:25:50;;;;;;;4.80;1.80;;;;;;;25.31;54.02;101815.50;107283;1256;25410;-74
2023/10/14 11:28:17;;;;;;;5.20;2.10;;;;;;;25.31;53.98;101813.77;107266;1256;24217;-71
2023/10/14 11:30:44;;;;;;;8.30;2.40;;;;;;;25.31;53.71;101815.86;107425;1252;22532;-73
2023/10/14 11:33:13;;;;;;;4.00;1.90;;;;;;;25.32;53.53;101817.60;107382;1254;25353;-74
2023/10/14 11:35:40;;;;;;;6.40;2.10;;;;;;;25.33;53.41;101815.23;107131;1257;22510;-74
2023/10/14 11:38:08;;;;;;;2.70;1.80;;;;;;;25.35;53.28;101814.38;107099;1253;25691;-74
2023/10/14 11:40:36;;;;;;;6.50;2.70;;;;;;;25.37;53.35;101813.71;107184;1257;23867;-72
2023/10/14 11:43:11;;;;;;;3.80;2.00;;;;;;;25.38;53.10;101815.91;107490;1250;23896;-72
2023/10/14 11:45:44;;;;;;;5.20;1.90;;;;;;;25.41;52.64;101806.92;107498;1257;23271;-74
2023/10/14 11:48:22;;;;;;;5.00;2.30;;;;;;;25.42;52.60;101810.02;107141;1259;25375;-74
2023/10/14 11:51:11;;;;;;;4.70;2.70;;;;;;;25.43;52.72;101804.62;107386;1254;24337;-74
2023/10/14 11:53:43;;;;;;;5.20;2.10;;;;;;;25.44;52.82;101803.64;107497;1257;24278;-73
2023/10/14 11:56:13;;;;;;;5.90;2.10;;;;;;;25.45;52.88;101801.98;107419;1254;22980;-72
2023/10/14 11:58:40;;;;;;;3.50;1.70;;;;;;;25.46;52.73;101804.02;107270;1256;25488;-74
2023/10/14 12:01:11;;;;;;;3.90;2.00;;;;;;;25.47;52.65;101804.86;107741;1257;25409;-74
2023/10/14 12:03:38;;;;;;;4.00;2.50;;;;;;;25.47;52.35;101799.36;106803;1266;24444;-74
2023/10/14 12:06:07;;;;;;;3.20;1.90;;;;;;;25.46;52.31;101797.27;107056;1257;25245;-71
2023/10/14 12:08:38;;;;;;;4.50;2.00;;;;;;;25.46;52.29;101795.86;107154;1256;23918;-75
2023/10/14 12:11:05;;;;;;;3.40;2.20;;;;;;;25.45;52.23;101795.40;107142;1254;24028;-72
2023/10/14 12:13:32;;;;;;;4.70;2.50;;;;;;;25.44;52.23;101791.39;106968;1253;24214;-74
2023/10/14 12:16:13;;;;;;;4.50;2.10;;;;;;;25.43;52.44;101786.15;107328;1267;26147;-75